sensor_id;sensor_type;location;lat;lon;timestamp;P1;durP1;ratioP1;P2;durP2;ratioP2
69981;SDS011;57319;56.274;43.980;2023-09-30T00:00:26;17.02;;;7.63;;
69981;SDS011;57319;56.274;43.980;2023-09-30T00:02:52;14.27;;;7.35;;
69981;SDS011;57319;56.274;43.980;2023-09-30T00:05:18;9.55;;;7.57;;
69981;SDS011;57319;56.274;43.980;2023-09-30T00:07:46;9.38;;;7.35;;
69981;SDS011;57319;56.274;43.980;2023-09-30T00:10:12;9.10;;;8.07;;
69981;SDS011;57319;56.274;43.980;2023-09-30T00:12:38;13.93;;;8.25;;
69981;SDS011;57319;56.274;43.980;2023-09-30T00:15:03;8.80;;;7.82;;
69981;SDS011;57319;56.274;43.980;2023-09-30T00:17:30;19.13;;;8.93;;
69981;SDS011;57319;56.274;43.980;2023-09-30T00:19:56;17.98;;;9.20;;
69981;SDS011;57319;56.274;43.980;2023-09-30T00:22:21;13.70;;;8.70;;
69981;SDS011;57319;56.274;43.980;2023-09-30T00:24:47;14.57;;;9.50;;
69981;SDS011;57319;56.274;43.980;2023-09-30T00:27:13;14.95;;;9.43;;
69981;SDS011;57319;56.274;43.980;2023-09-30T00:29:39;15.80;;;10.45;;
69981;SDS011;57319;56.274;43.980;2023-09-30T00:32:05;16.20;;;9.77;;
69981;SDS011;57319;56.274;43.980;2023-09-30T00:34:34;11.38;;;9.35;;
69981;SDS011;57319;56.274;43.980;2023-09-30T00:37:00;16.30;;;10.27;;
69981;SDS011;57319;56.274;43.980;2023-09-30T00:39:26;16.38;;;10.30;;
69981;SDS011;57319;56.274;43.980;2023-09-30T00:41:55;14.65;;;10.13;;
69981;SDS011;57319;56.274;43.980;2023-09-30T00:44:24;16.95;;;10.20;;
69981;SDS011;57319;56.274;43.980;2023-09-30T00:46:50;13.45;;;10.40;;
69981;SDS011;57319;56.274;43.980;2023-09-30T00:49:16;17.55;;;10.65;;
69981;SDS011;57319;56.274;43.980;2023-09-30T00:51:44;17.02;;;11.93;;
69981;SDS011;57319;56.274;43.980;2023-09-30T00:54:11;14.50;;;10.50;;
69981;SDS011;57319;56.274;43.980;2023-09-30T00:56:39;14.02;;;11.00;;
69981;SDS011;57319;56.274;43.980;2023-09-30T00:59:13;14.98;;;11.45;;
69981;SDS011;57319;56.274;43.980;2023-09-30T01:01:40;24.10;;;10.98;;
69981;SDS011;57319;56.274;43.980;2023-09-30T01:04:07;19.45;;;11.40;;
69981;SDS011;57319;56.274;43.980;2023-09-30T01:06:32;21.65;;;12.13;;
69981;SDS011;57319;56.274;43.980;2023-09-30T01:08:58;19.90;;;10.77;;
69981;SDS011;57319;56.274;43.980;2023-09-30T01:11:24;19.15;;;10.63;;
69981;SDS011;57319;56.274;43.980;2023-09-30T01:13:51;19.50;;;9.80;;
69981;SDS011;57319;56.274;43.980;2023-09-30T01:16:17;16.63;;;10.73;;
69981;SDS011;57319;56.274;43.980;2023-09-30T01:18:42;32.20;;;10.73;;
69981;SDS011;57319;56.274;43.980;2023-09-30T01:21:08;15.02;;;9.90;;
69981;SDS011;57319;56.274;43.980;2023-09-30T01:23:35;19.02;;;10.95;;
69981;SDS011;57319;56.274;43.980;2023-09-30T01:26:11;16.63;;;10.27;;
69981;SDS011;57319;56.274;43.980;2023-09-30T01:28:37;14.25;;;10.10;;
69981;SDS011;57319;56.274;43.980;2023-09-30T01:31:04;17.92;;;9.57;;
69981;SDS011;57319;56.274;43.980;2023-09-30T01:33:30;23.63;;;10.20;;
69981;SDS011;57319;56.274;43.980;2023-09-30T01:35:57;15.40;;;9.60;;
69981;SDS011;57319;56.274;43.980;2023-09-30T01:38:23;16.83;;;9.85;;
69981;SDS011;57319;56.274;43.980;2023-09-30T01:40:49;16.70;;;9.38;;
69981;SDS011;57319;56.274;43.980;2023-09-30T01:43:15;16.98;;;8.82;;
69981;SDS011;57319;56.274;43.980;2023-09-30T01:45:41;14.60;;;8.70;;
69981;SDS011;57319;56.274;43.980;2023-09-30T01:48:07;11.48;;;8.48;;
69981;SDS011;57319;56.274;43.980;2023-09-30T01:50:39;21.27;;;9.18;;
69981;SDS011;57319;56.274;43.980;2023-09-30T01:53:08;14.90;;;8.80;;
69981;SDS011;57319;56.274;43.980;2023-09-30T01:55:37;10.75;;;8.40;;
69981;SDS011;57319;56.274;43.980;2023-09-30T01:58:02;11.05;;;8.43;;
69981;SDS011;57319;56.274;43.980;2023-09-30T02:00:28;15.48;;;8.55;;
69981;SDS011;57319;56.274;43.980;2023-09-30T02:02:54;14.95;;;7.93;;
69981;SDS011;57319;56.274;43.980;2023-09-30T02:05:21;10.30;;;7.35;;
69981;SDS011;57319;56.274;43.980;2023-09-30T02:07:48;11.18;;;7.68;;
69981;SDS011;57319;56.274;43.980;2023-09-30T02:10:14;11.60;;;8.20;;
69981;SDS011;57319;56.274;43.980;2023-09-30T02:12:39;11.02;;;8.20;;
69981;SDS011;57319;56.274;43.980;2023-09-30T02:15:05;12.00;;;8.20;;
69981;SDS011;57319;56.274;43.980;2023-09-30T02:17:36;12.82;;;8.35;;
69981;SDS011;57319;56.274;43.980;2023-09-30T02:20:01;11.68;;;8.20;;
69981;SDS011;57319;56.274;43.980;2023-09-30T02:22:52;12.10;;;7.82;;
69981;SDS011;57319;56.274;43.980;2023-09-30T02:25:19;8.88;;;7.65;;
69981;SDS011;57319;56.274;43.980;2023-09-30T02:27:44;9.18;;;7.28;;
69981;SDS011;57319;56.274;43.980;2023-09-30T02:30:11;10.85;;;8.55;;
69981;SDS011;57319;56.274;43.980;2023-09-30T02:32:41;13.57;;;8.60;;
69981;SDS011;57319;56.274;43.980;2023-09-30T02:35:07;11.18;;;7.85;;
69981;SDS011;57319;56.274;43.980;2023-09-30T02:37:36;14.43;;;8.38;;
69981;SDS011;57319;56.274;43.980;2023-09-30T02:40:03;11.50;;;8.02;;
69981;SDS011;57319;56.274;43.980;2023-09-30T02:42:39;13.33;;;8.50;;
69981;SDS011;57319;56.274;43.980;2023-09-30T02:45:06;10.18;;;8.65;;
69981;SDS011;57319;56.274;43.980;2023-09-30T02:47:36;11.38;;;8.70;;
69981;SDS011;57319;56.274;43.980;2023-09-30T02:50:04;12.32;;;9.02;;
69981;SDS011;57319;56.274;43.980;2023-09-30T02:52:31;21.05;;;8.65;;
69981;SDS011;57319;56.274;43.980;2023-09-30T02:55:00;15.57;;;9.57;;
69981;SDS011;57319;56.274;43.980;2023-09-30T02:57:26;14.85;;;9.48;;
69981;SDS011;57319;56.274;43.980;2023-09-30T02:59:55;21.52;;;9.77;;
69981;SDS011;57319;56.274;43.980;2023-09-30T03:02:21;12.20;;;9.38;;
69981;SDS011;57319;56.274;43.980;2023-09-30T03:04:47;10.82;;;9.25;;
69981;SDS011;57319;56.274;43.980;2023-09-30T03:07:15;18.45;;;10.45;;
69981;SDS011;57319;56.274;43.980;2023-09-30T03:09:41;14.05;;;10.40;;
69981;SDS011;57319;56.274;43.980;2023-09-30T03:12:07;17.17;;;11.45;;
69981;SDS011;57319;56.274;43.980;2023-09-30T03:14:34;18.73;;;11.45;;
69981;SDS011;57319;56.274;43.980;2023-09-30T03:16:59;17.20;;;12.38;;
69981;SDS011;57319;56.274;43.980;2023-09-30T03:19:25;19.58;;;11.85;;
69981;SDS011;57319;56.274;43.980;2023-09-30T03:21:51;17.70;;;11.13;;
69981;SDS011;57319;56.274;43.980;2023-09-30T03:24:17;17.40;;;11.32;;
69981;SDS011;57319;56.274;43.980;2023-09-30T03:26:42;20.15;;;11.95;;
69981;SDS011;57319;56.274;43.980;2023-09-30T03:29:09;29.38;;;11.13;;
69981;SDS011;57319;56.274;43.980;2023-09-30T03:31:35;14.27;;;9.93;;
69981;SDS011;57319;56.274;43.980;2023-09-30T03:34:04;15.85;;;9.82;;
69981;SDS011;57319;56.274;43.980;2023-09-30T03:36:31;17.00;;;10.98;;
69981;SDS011;57319;56.274;43.980;2023-09-30T03:38:57;13.63;;;9.85;;
69981;SDS011;57319;56.274;43.980;2023-09-30T03:41:30;13.70;;;9.60;;
69981;SDS011;57319;56.274;43.980;2023-09-30T03:43:56;18.67;;;10.52;;
69981;SDS011;57319;56.274;43.980;2023-09-30T03:46:22;15.52;;;9.02;;
69981;SDS011;57319;56.274;43.980;2023-09-30T03:48:48;17.08;;;9.80;;
69981;SDS011;57319;56.274;43.980;2023-09-30T03:51:13;16.45;;;9.40;;
69981;SDS011;57319;56.274;43.980;2023-09-30T03:53:46;14.27;;;9.63;;
69981;SDS011;57319;56.274;43.980;2023-09-30T03:56:11;14.35;;;9.40;;
69981;SDS011;57319;56.274;43.980;2023-09-30T03:58:46;13.13;;;8.90;;
69981;SDS011;57319;56.274;43.980;2023-09-30T04:01:13;19.45;;;9.75;;
69981;SDS011;57319;56.274;43.980;2023-09-30T04:03:39;20.98;;;9.55;;
69981;SDS011;57319;56.274;43.980;2023-09-30T04:06:05;10.20;;;9.18;;
69981;SDS011;57319;56.274;43.980;2023-09-30T04:08:34;12.70;;;9.23;;
69981;SDS011;57319;56.274;43.980;2023-09-30T04:11:01;14.07;;;8.40;;
69981;SDS011;57319;56.274;43.980;2023-09-30T04:13:31;16.67;;;8.60;;
69981;SDS011;57319;56.274;43.980;2023-09-30T04:15:57;14.48;;;8.30;;
69981;SDS011;57319;56.274;43.980;2023-09-30T04:18:25;16.02;;;9.02;;
69981;SDS011;57319;56.274;43.980;2023-09-30T04:20:53;16.08;;;8.63;;
69981;SDS011;57319;56.274;43.980;2023-09-30T04:23:19;12.63;;;9.27;;
69981;SDS011;57319;56.274;43.980;2023-09-30T04:25:48;12.68;;;8.65;;
69981;SDS011;57319;56.274;43.980;2023-09-30T04:28:15;17.60;;;8.18;;
69981;SDS011;57319;56.274;43.980;2023-09-30T04:30:41;21.15;;;10.85;;
69981;SDS011;57319;56.274;43.980;2023-09-30T04:33:07;16.40;;;8.43;;
69981;SDS011;57319;56.274;43.980;2023-09-30T04:35:33;17.58;;;8.98;;
69981;SDS011;57319;56.274;43.980;2023-09-30T04:38:00;19.92;;;8.90;;
69981;SDS011;57319;56.274;43.980;2023-09-30T04:40:27;12.40;;;9.00;;
69981;SDS011;57319;56.274;43.980;2023-09-30T04:42:53;15.55;;;9.60;;
69981;SDS011;57319;56.274;43.980;2023-09-30T04:45:24;11.35;;;8.65;;
69981;SDS011;57319;56.274;43.980;2023-09-30T04:47:52;10.20;;;8.77;;
69981;SDS011;57319;56.274;43.980;2023-09-30T04:50:18;16.15;;;9.13;;
69981;SDS011;57319;56.274;43.980;2023-09-30T04:52:47;13.63;;;9.40;;
69981;SDS011;57319;56.274;43.980;2023-09-30T04:55:14;13.98;;;8.75;;
69981;SDS011;57319;56.274;43.980;2023-09-30T04:57:45;15.10;;;9.25;;
69981;SDS011;57319;56.274;43.980;2023-09-30T05:00:15;14.70;;;8.85;;
69981;SDS011;57319;56.274;43.980;2023-09-30T05:02:50;18.23;;;8.82;;
69981;SDS011;57319;56.274;43.980;2023-09-30T05:05:17;13.90;;;8.90;;
69981;SDS011;57319;56.274;43.980;2023-09-30T05:07:43;12.77;;;8.15;;
69981;SDS011;57319;56.274;43.980;2023-09-30T05:10:11;12.02;;;8.82;;
69981;SDS011;57319;56.274;43.980;2023-09-30T05:12:42;11.77;;;7.53;;
69981;SDS011;57319;56.274;43.980;2023-09-30T05:15:11;30.05;;;8.65;;
69981;SDS011;57319;56.274;43.980;2023-09-30T05:17:38;16.42;;;8.93;;
69981;SDS011;57319;56.274;43.980;2023-09-30T05:20:04;19.40;;;8.80;;
69981;SDS011;57319;56.274;43.980;2023-09-30T05:22:35;15.23;;;8.48;;
69981;SDS011;57319;56.274;43.980;2023-09-30T05:25:01;28.45;;;8.68;;
69981;SDS011;57319;56.274;43.980;2023-09-30T05:27:29;8.18;;;7.38;;
69981;SDS011;57319;56.274;43.980;2023-09-30T05:29:55;19.05;;;7.65;;
69981;SDS011;57319;56.274;43.980;2023-09-30T05:32:21;12.57;;;7.68;;
69981;SDS011;57319;56.274;43.980;2023-09-30T05:34:47;15.88;;;7.68;;
69981;SDS011;57319;56.274;43.980;2023-09-30T05:37:13;12.30;;;7.28;;
69981;SDS011;57319;56.274;43.980;2023-09-30T05:39:39;11.45;;;7.95;;
69981;SDS011;57319;56.274;43.980;2023-09-30T05:42:05;14.23;;;8.38;;
69981;SDS011;57319;56.274;43.980;2023-09-30T05:44:32;16.48;;;8.35;;
69981;SDS011;57319;56.274;43.980;2023-09-30T05:46:57;11.98;;;8.55;;
69981;SDS011;57319;56.274;43.980;2023-09-30T05:49:25;16.48;;;8.40;;
69981;SDS011;57319;56.274;43.980;2023-09-30T05:51:50;12.88;;;7.80;;
69981;SDS011;57319;56.274;43.980;2023-09-30T05:54:16;14.93;;;8.52;;
69981;SDS011;57319;56.274;43.980;2023-09-30T05:56:42;15.27;;;8.30;;
69981;SDS011;57319;56.274;43.980;2023-09-30T05:59:08;16.35;;;9.07;;
69981;SDS011;57319;56.274;43.980;2023-09-30T06:01:34;26.65;;;10.27;;
69981;SDS011;57319;56.274;43.980;2023-09-30T06:04:04;17.25;;;9.38;;
69981;SDS011;57319;56.274;43.980;2023-09-30T06:06:30;17.10;;;8.43;;
69981;SDS011;57319;56.274;43.980;2023-09-30T06:08:56;21.25;;;9.60;;
69981;SDS011;57319;56.274;43.980;2023-09-30T06:11:25;21.42;;;9.25;;
69981;SDS011;57319;56.274;43.980;2023-09-30T06:13:54;21.65;;;9.00;;
69981;SDS011;57319;56.274;43.980;2023-09-30T06:16:20;20.73;;;9.88;;
69981;SDS011;57319;56.274;43.980;2023-09-30T06:18:46;20.13;;;10.75;;
69981;SDS011;57319;56.274;43.980;2023-09-30T06:21:15;19.75;;;9.30;;
69981;SDS011;57319;56.274;43.980;2023-09-30T06:23:43;27.60;;;10.13;;
69981;SDS011;57319;56.274;43.980;2023-09-30T06:26:09;19.05;;;10.20;;
69981;SDS011;57319;56.274;43.980;2023-09-30T06:28:35;26.77;;;10.50;;
69981;SDS011;57319;56.274;43.980;2023-09-30T06:31:07;19.67;;;9.45;;
69981;SDS011;57319;56.274;43.980;2023-09-30T06:33:34;32.67;;;10.10;;
69981;SDS011;57319;56.274;43.980;2023-09-30T06:36:08;17.58;;;9.75;;
69981;SDS011;57319;56.274;43.980;2023-09-30T06:38:34;28.35;;;10.40;;
69981;SDS011;57319;56.274;43.980;2023-09-30T06:41:02;22.77;;;10.18;;
69981;SDS011;57319;56.274;43.980;2023-09-30T06:43:27;19.13;;;9.90;;
69981;SDS011;57319;56.274;43.980;2023-09-30T06:45:53;16.98;;;10.05;;
69981;SDS011;57319;56.274;43.980;2023-09-30T06:48:19;33.72;;;9.70;;
69981;SDS011;57319;56.274;43.980;2023-09-30T06:50:47;28.13;;;10.43;;
69981;SDS011;57319;56.274;43.980;2023-09-30T06:53:14;15.85;;;9.60;;
69981;SDS011;57319;56.274;43.980;2023-09-30T06:55:41;24.58;;;9.02;;
69981;SDS011;57319;56.274;43.980;2023-09-30T06:58:11;16.98;;;9.55;;
69981;SDS011;57319;56.274;43.980;2023-09-30T07:00:37;20.27;;;9.57;;
69981;SDS011;57319;56.274;43.980;2023-09-30T07:03:03;23.25;;;9.30;;
69981;SDS011;57319;56.274;43.980;2023-09-30T07:05:30;18.17;;;9.00;;
69981;SDS011;57319;56.274;43.980;2023-09-30T07:07:55;32.88;;;9.63;;
69981;SDS011;57319;56.274;43.980;2023-09-30T07:10:22;22.65;;;9.75;;
69981;SDS011;57319;56.274;43.980;2023-09-30T07:12:48;19.45;;;9.73;;
69981;SDS011;57319;56.274;43.980;2023-09-30T07:15:13;17.98;;;9.88;;
69981;SDS011;57319;56.274;43.980;2023-09-30T07:17:39;20.02;;;9.85;;
69981;SDS011;57319;56.274;43.980;2023-09-30T07:20:05;14.27;;;10.23;;
69981;SDS011;57319;56.274;43.980;2023-09-30T07:22:32;23.02;;;9.98;;
69981;SDS011;57319;56.274;43.980;2023-09-30T07:24:59;14.98;;;9.25;;
69981;SDS011;57319;56.274;43.980;2023-09-30T07:27:25;22.10;;;10.93;;
69981;SDS011;57319;56.274;43.980;2023-09-30T07:29:50;17.02;;;9.70;;
69981;SDS011;57319;56.274;43.980;2023-09-30T07:32:16;15.30;;;9.88;;
69981;SDS011;57319;56.274;43.980;2023-09-30T07:34:42;15.98;;;9.82;;
69981;SDS011;57319;56.274;43.980;2023-09-30T07:37:08;19.17;;;9.90;;
69981;SDS011;57319;56.274;43.980;2023-09-30T07:39:34;30.92;;;9.93;;
69981;SDS011;57319;56.274;43.980;2023-09-30T07:42:00;15.10;;;8.80;;
69981;SDS011;57319;56.274;43.980;2023-09-30T07:44:26;18.25;;;9.40;;
69981;SDS011;57319;56.274;43.980;2023-09-30T07:46:52;16.92;;;9.30;;
69981;SDS011;57319;56.274;43.980;2023-09-30T07:49:17;13.00;;;8.40;;
69981;SDS011;57319;56.274;43.980;2023-09-30T07:51:44;25.67;;;9.30;;
69981;SDS011;57319;56.274;43.980;2023-09-30T07:54:11;12.75;;;8.10;;
69981;SDS011;57319;56.274;43.980;2023-09-30T07:56:37;15.50;;;9.57;;
69981;SDS011;57319;56.274;43.980;2023-09-30T07:59:03;15.85;;;8.05;;
69981;SDS011;57319;56.274;43.980;2023-09-30T08:01:30;15.35;;;8.57;;
69981;SDS011;57319;56.274;43.980;2023-09-30T08:03:56;26.70;;;8.63;;
69981;SDS011;57319;56.274;43.980;2023-09-30T08:06:22;17.52;;;8.30;;
69981;SDS011;57319;56.274;43.980;2023-09-30T08:08:48;15.60;;;8.65;;
69981;SDS011;57319;56.274;43.980;2023-09-30T08:11:14;16.15;;;8.50;;
69981;SDS011;57319;56.274;43.980;2023-09-30T08:13:40;20.38;;;9.18;;
69981;SDS011;57319;56.274;43.980;2023-09-30T08:16:06;22.00;;;8.30;;
69981;SDS011;57319;56.274;43.980;2023-09-30T08:18:32;16.13;;;9.68;;
69981;SDS011;57319;56.274;43.980;2023-09-30T08:20:58;23.40;;;9.07;;
69981;SDS011;57319;56.274;43.980;2023-09-30T08:23:23;21.45;;;8.68;;
69981;SDS011;57319;56.274;43.980;2023-09-30T08:25:49;16.17;;;8.90;;
69981;SDS011;57319;56.274;43.980;2023-09-30T08:28:15;18.83;;;10.18;;
69981;SDS011;57319;56.274;43.980;2023-09-30T08:30:41;18.27;;;8.98;;
69981;SDS011;57319;56.274;43.980;2023-09-30T08:33:07;26.17;;;9.50;;
69981;SDS011;57319;56.274;43.980;2023-09-30T08:35:36;25.75;;;8.98;;
69981;SDS011;57319;56.274;43.980;2023-09-30T08:38:03;21.33;;;8.20;;
69981;SDS011;57319;56.274;43.980;2023-09-30T08:40:29;20.90;;;8.27;;
69981;SDS011;57319;56.274;43.980;2023-09-30T08:42:55;14.77;;;8.05;;
69981;SDS011;57319;56.274;43.980;2023-09-30T08:45:20;17.20;;;8.73;;
69981;SDS011;57319;56.274;43.980;2023-09-30T08:47:46;27.52;;;9.35;;
69981;SDS011;57319;56.274;43.980;2023-09-30T08:50:12;22.35;;;8.68;;
69981;SDS011;57319;56.274;43.980;2023-09-30T08:52:39;14.43;;;8.00;;
69981;SDS011;57319;56.274;43.980;2023-09-30T08:55:09;16.23;;;8.15;;
69981;SDS011;57319;56.274;43.980;2023-09-30T08:57:42;16.75;;;8.23;;
69981;SDS011;57319;56.274;43.980;2023-09-30T09:00:09;11.50;;;8.48;;
69981;SDS011;57319;56.274;43.980;2023-09-30T09:02:42;10.68;;;8.48;;
69981;SDS011;57319;56.274;43.980;2023-09-30T09:05:08;11.25;;;8.05;;
69981;SDS011;57319;56.274;43.980;2023-09-30T09:07:34;17.02;;;8.32;;
69981;SDS011;57319;56.274;43.980;2023-09-30T09:10:04;22.23;;;7.93;;
69981;SDS011;57319;56.274;43.980;2023-09-30T09:12:33;16.70;;;8.15;;
69981;SDS011;57319;56.274;43.980;2023-09-30T09:15:00;10.07;;;6.90;;
69981;SDS011;57319;56.274;43.980;2023-09-30T09:17:39;18.15;;;7.63;;
69981;SDS011;57319;56.274;43.980;2023-09-30T09:20:18;9.77;;;7.53;;
69981;SDS011;57319;56.274;43.980;2023-09-30T09:22:47;18.33;;;7.82;;
69981;SDS011;57319;56.274;43.980;2023-09-30T09:25:16;15.30;;;7.53;;
69981;SDS011;57319;56.274;43.980;2023-09-30T09:27:42;14.15;;;7.45;;
69981;SDS011;57319;56.274;43.980;2023-09-30T09:30:18;11.32;;;7.05;;
69981;SDS011;57319;56.274;43.980;2023-09-30T09:33:03;14.68;;;6.57;;
69981;SDS011;57319;56.274;43.980;2023-09-30T09:35:31;19.80;;;7.57;;
69981;SDS011;57319;56.274;43.980;2023-09-30T09:38:05;24.30;;;7.30;;
69981;SDS011;57319;56.274;43.980;2023-09-30T09:40:33;12.30;;;7.07;;
69981;SDS011;57319;56.274;43.980;2023-09-30T09:43:01;26.40;;;7.53;;
69981;SDS011;57319;56.274;43.980;2023-09-30T09:45:35;15.93;;;7.50;;
69981;SDS011;57319;56.274;43.980;2023-09-30T09:48:03;18.58;;;8.07;;
69981;SDS011;57319;56.274;43.980;2023-09-30T09:50:30;13.15;;;6.97;;
69981;SDS011;57319;56.274;43.980;2023-09-30T09:52:58;14.60;;;7.22;;
69981;SDS011;57319;56.274;43.980;2023-09-30T09:55:24;11.35;;;8.35;;
69981;SDS011;57319;56.274;43.980;2023-09-30T09:57:50;13.02;;;7.68;;
69981;SDS011;57319;56.274;43.980;2023-09-30T10:00:23;19.48;;;7.90;;
69981;SDS011;57319;56.274;43.980;2023-09-30T10:02:51;10.25;;;6.85;;
69981;SDS011;57319;56.274;43.980;2023-09-30T10:05:17;21.42;;;7.88;;
69981;SDS011;57319;56.274;43.980;2023-09-30T10:10:28;16.20;;;7.77;;
69981;SDS011;57319;56.274;43.980;2023-09-30T10:12:55;15.50;;;7.15;;
69981;SDS011;57319;56.274;43.980;2023-09-30T10:17:58;16.77;;;7.32;;
69981;SDS011;57319;56.274;43.980;2023-09-30T10:20:35;9.63;;;7.25;;
69981;SDS011;57319;56.274;43.980;2023-09-30T10:25:52;18.52;;;7.32;;
69981;SDS011;57319;56.274;43.980;2023-09-30T10:36:34;11.32;;;6.78;;
69981;SDS011;57319;56.274;43.980;2023-09-30T10:39:03;13.65;;;7.13;;
69981;SDS011;57319;56.274;43.980;2023-09-30T10:46:52;24.15;;;7.32;;
69981;SDS011;57319;56.274;43.980;2023-09-30T10:51:51;13.82;;;6.90;;
69981;SDS011;57319;56.274;43.980;2023-09-30T10:54:23;14.05;;;7.28;;
69981;SDS011;57319;56.274;43.980;2023-09-30T10:56:51;8.75;;;6.60;;
69981;SDS011;57319;56.274;43.980;2023-09-30T10:59:21;20.73;;;7.43;;
69981;SDS011;57319;56.274;43.980;2023-09-30T11:01:48;13.95;;;7.38;;
69981;SDS011;57319;56.274;43.980;2023-09-30T11:04:18;11.30;;;7.10;;
69981;SDS011;57319;56.274;43.980;2023-09-30T11:06:45;16.98;;;7.25;;
69981;SDS011;57319;56.274;43.980;2023-09-30T11:09:15;11.35;;;7.10;;
69981;SDS011;57319;56.274;43.980;2023-09-30T11:11:44;16.05;;;6.85;;
69981;SDS011;57319;56.274;43.980;2023-09-30T11:16:43;13.93;;;7.45;;
69981;SDS011;57319;56.274;43.980;2023-09-30T11:19:09;20.77;;;7.47;;
69981;SDS011;57319;56.274;43.980;2023-09-30T11:21:37;23.88;;;7.25;;
69981;SDS011;57319;56.274;43.980;2023-09-30T11:24:03;11.38;;;7.60;;
69981;SDS011;57319;56.274;43.980;2023-09-30T11:26:30;14.63;;;7.50;;
69981;SDS011;57319;56.274;43.980;2023-09-30T11:29:06;16.33;;;7.47;;
69981;SDS011;57319;56.274;43.980;2023-09-30T11:31:45;19.80;;;7.15;;
69981;SDS011;57319;56.274;43.980;2023-09-30T11:34:15;17.02;;;7.38;;
69981;SDS011;57319;56.274;43.980;2023-09-30T11:36:47;20.10;;;7.57;;
69981;SDS011;57319;56.274;43.980;2023-09-30T11:39:23;11.10;;;6.30;;
69981;SDS011;57319;56.274;43.980;2023-09-30T11:41:50;19.13;;;7.22;;
69981;SDS011;57319;56.274;43.980;2023-09-30T11:44:17;21.55;;;7.78;;
69981;SDS011;57319;56.274;43.980;2023-09-30T11:46:51;27.60;;;7.55;;
69981;SDS011;57319;56.274;43.980;2023-09-30T11:49:28;14.75;;;6.88;;
69981;SDS011;57319;56.274;43.980;2023-09-30T11:52:00;19.13;;;7.53;;
69981;SDS011;57319;56.274;43.980;2023-09-30T11:57:03;14.02;;;7.30;;
69981;SDS011;57319;56.274;43.980;2023-09-30T11:59:29;10.13;;;7.32;;
69981;SDS011;57319;56.274;43.980;2023-09-30T12:01:56;13.82;;;7.00;;
69981;SDS011;57319;56.274;43.980;2023-09-30T12:04:22;14.45;;;7.47;;
69981;SDS011;57319;56.274;43.980;2023-09-30T12:06:47;15.93;;;6.65;;
69981;SDS011;57319;56.274;43.980;2023-09-30T12:09:14;17.77;;;7.20;;
69981;SDS011;57319;56.274;43.980;2023-09-30T12:11:42;12.60;;;6.80;;
69981;SDS011;57319;56.274;43.980;2023-09-30T12:14:10;14.75;;;7.35;;
69981;SDS011;57319;56.274;43.980;2023-09-30T12:16:36;10.43;;;6.97;;
69981;SDS011;57319;56.274;43.980;2023-09-30T12:19:02;12.30;;;6.57;;
69981;SDS011;57319;56.274;43.980;2023-09-30T12:21:28;21.58;;;8.30;;
69981;SDS011;57319;56.274;43.980;2023-09-30T12:23:54;16.23;;;7.85;;
69981;SDS011;57319;56.274;43.980;2023-09-30T12:26:19;15.80;;;8.10;;
69981;SDS011;57319;56.274;43.980;2023-09-30T12:28:45;9.50;;;6.85;;
69981;SDS011;57319;56.274;43.980;2023-09-30T12:31:12;16.17;;;7.45;;
69981;SDS011;57319;56.274;43.980;2023-09-30T12:33:39;12.98;;;7.70;;
69981;SDS011;57319;56.274;43.980;2023-09-30T12:36:05;19.23;;;7.20;;
69981;SDS011;57319;56.274;43.980;2023-09-30T12:38:31;19.65;;;7.57;;
69981;SDS011;57319;56.274;43.980;2023-09-30T12:40:57;24.05;;;7.43;;
69981;SDS011;57319;56.274;43.980;2023-09-30T12:43:22;11.43;;;7.07;;
69981;SDS011;57319;56.274;43.980;2023-09-30T12:45:48;19.85;;;7.50;;
69981;SDS011;57319;56.274;43.980;2023-09-30T12:48:14;11.15;;;7.50;;
69981;SDS011;57319;56.274;43.980;2023-09-30T12:50:41;17.02;;;7.88;;
69981;SDS011;57319;56.274;43.980;2023-09-30T12:53:07;13.98;;;8.05;;
69981;SDS011;57319;56.274;43.980;2023-09-30T12:55:32;10.77;;;7.57;;
69981;SDS011;57319;56.274;43.980;2023-09-30T12:57:58;14.85;;;7.32;;
69981;SDS011;57319;56.274;43.980;2023-09-30T13:00:25;17.95;;;7.88;;
69981;SDS011;57319;56.274;43.980;2023-09-30T13:02:51;14.10;;;6.75;;
69981;SDS011;57319;56.274;43.980;2023-09-30T13:05:18;18.55;;;7.80;;
69981;SDS011;57319;56.274;43.980;2023-09-30T13:07:45;10.45;;;7.72;;
69981;SDS011;57319;56.274;43.980;2023-09-30T13:10:11;14.80;;;7.60;;
69981;SDS011;57319;56.274;43.980;2023-09-30T13:12:38;21.83;;;8.68;;
69981;SDS011;57319;56.274;43.980;2023-09-30T13:15:04;25.42;;;8.07;;
69981;SDS011;57319;56.274;43.980;2023-09-30T13:17:31;17.42;;;8.38;;
69981;SDS011;57319;56.274;43.980;2023-09-30T13:19:57;16.05;;;7.90;;
69981;SDS011;57319;56.274;43.980;2023-09-30T13:22:23;15.82;;;8.32;;
69981;SDS011;57319;56.274;43.980;2023-09-30T13:24:49;18.35;;;7.53;;
69981;SDS011;57319;56.274;43.980;2023-09-30T13:27:14;17.35;;;7.97;;
69981;SDS011;57319;56.274;43.980;2023-09-30T13:29:44;14.23;;;7.20;;
69981;SDS011;57319;56.274;43.980;2023-09-30T13:32:11;13.75;;;8.25;;
69981;SDS011;57319;56.274;43.980;2023-09-30T13:34:37;15.38;;;7.70;;
69981;SDS011;57319;56.274;43.980;2023-09-30T13:37:03;18.73;;;7.70;;
69981;SDS011;57319;56.274;43.980;2023-09-30T13:39:29;21.50;;;8.32;;
69981;SDS011;57319;56.274;43.980;2023-09-30T13:41:54;19.92;;;8.00;;
69981;SDS011;57319;56.274;43.980;2023-09-30T13:44:20;16.55;;;8.20;;
69981;SDS011;57319;56.274;43.980;2023-09-30T13:46:46;24.02;;;8.05;;
69981;SDS011;57319;56.274;43.980;2023-09-30T13:49:13;16.95;;;8.13;;
69981;SDS011;57319;56.274;43.980;2023-09-30T13:51:39;17.83;;;8.18;;
69981;SDS011;57319;56.274;43.980;2023-09-30T13:54:05;19.83;;;7.57;;
69981;SDS011;57319;56.274;43.980;2023-09-30T13:56:32;13.43;;;8.00;;
69981;SDS011;57319;56.274;43.980;2023-09-30T13:58:58;23.30;;;8.35;;
69981;SDS011;57319;56.274;43.980;2023-09-30T14:01:25;17.35;;;8.75;;
69981;SDS011;57319;56.274;43.980;2023-09-30T14:03:52;24.27;;;8.65;;
69981;SDS011;57319;56.274;43.980;2023-09-30T14:06:21;19.60;;;8.38;;
69981;SDS011;57319;56.274;43.980;2023-09-30T14:08:47;17.65;;;8.32;;
69981;SDS011;57319;56.274;43.980;2023-09-30T14:11:12;21.73;;;7.47;;
69981;SDS011;57319;56.274;43.980;2023-09-30T14:13:38;34.50;;;8.95;;
69981;SDS011;57319;56.274;43.980;2023-09-30T14:16:07;17.95;;;8.25;;
69981;SDS011;57319;56.274;43.980;2023-09-30T14:18:33;21.50;;;8.57;;
69981;SDS011;57319;56.274;43.980;2023-09-30T14:20:59;20.63;;;8.35;;
69981;SDS011;57319;56.274;43.980;2023-09-30T14:23:26;23.02;;;8.85;;
69981;SDS011;57319;56.274;43.980;2023-09-30T14:25:54;20.95;;;8.32;;
69981;SDS011;57319;56.274;43.980;2023-09-30T14:28:21;14.90;;;8.65;;
69981;SDS011;57319;56.274;43.980;2023-09-30T14:30:47;22.63;;;9.13;;
69981;SDS011;57319;56.274;43.980;2023-09-30T14:33:15;18.08;;;8.13;;
69981;SDS011;57319;56.274;43.980;2023-09-30T14:35:41;17.50;;;8.75;;
69981;SDS011;57319;56.274;43.980;2023-09-30T14:38:09;15.73;;;8.30;;
69981;SDS011;57319;56.274;43.980;2023-09-30T14:40:37;12.32;;;7.97;;
69981;SDS011;57319;56.274;43.980;2023-09-30T14:43:05;13.60;;;7.75;;
69981;SDS011;57319;56.274;43.980;2023-09-30T14:45:31;22.05;;;8.85;;
69981;SDS011;57319;56.274;43.980;2023-09-30T14:47:57;20.40;;;7.80;;
69981;SDS011;57319;56.274;43.980;2023-09-30T14:50:23;12.90;;;7.65;;